Terminal Aerodrome Forecast
Issued by NWS

Home | Current Version | Previous Version | Text Only | Print | Product List | Glossary On
Versions: 1 2 3 4 5 6 7 8 9 10 11 12 13 14 15 16 17 18 19 20 21
000
FTUS42 KTBW 311120
TAFPIE
TAF
KPIE 311120Z 3112/0112 19005KT P6SM VCSH SCT030 BKN250
      TEMPO 3113/3114 VRB15G25KT 3SM TSRA BKN030CB
     FM311400 22012KT P6SM VCTS SCT030CB BKN250
     FM010000 21007KT P6SM VCTS SCT030CB BKN250
     FM010600 19007KT P6SM SCT030 BKN250=

USA.gov is the U.S. government's official web portal to all federal, state and local government web resources and services.